Time;durP1;ratioP1;P1;durP2;ratioP2;P2;SDS_P1;SDS_P2;PMS_P1;PMS_P2;Temp;Humidity;BMP_temperature;BMP_pressure;BME280_temperature;BME280_humidity;BME280_pressure;Samples;Min_cycle;Max_cycle;Signal;HPM_P1;HPM_P2
2024/02/12 00:02:18;;;;;;;12.38;5.28;;;;;;;5.50;100.00;99081.75;5039361;28;20048;-70
2024/02/12 00:04:45;;;;;;;10.70;4.93;;;;;;;5.53;100.00;99078.41;5040073;28;20036;-70
2024/02/12 00:07:13;;;;;;;11.00;5.18;;;;;;;5.48;100.00;99081.22;5026127;28;20032;-70
2024/02/12 00:09:38;;;;;;;9.65;4.40;;;;;;;5.46;100.00;99083.47;5039843;28;20040;-71
2024/02/12 00:12:04;;;;;;;13.38;4.85;;;;;;;5.49;100.00;99085.63;5055586;28;20033;-70
2024/02/12 00:14:30;;;;;;;9.80;4.90;;;;;;;5.48;100.00;99086.72;5039100;28;20025;-70
2024/02/12 00:16:55;;;;;;;10.98;4.78;;;;;;;5.47;100.00;99087.03;5038833;28;20036;-70
2024/02/12 00:19:22;;;;;;;11.95;5.20;;;;;;;5.50;100.00;99083.69;5055042;28;20116;-71
2024/02/12 00:21:48;;;;;;;12.30;5.25;;;;;;;5.49;100.00;99084.78;5046025;28;20043;-70
2024/02/12 00:24:15;;;;;;;10.02;4.80;;;;;;;5.53;100.00;99085.84;5052941;28;20028;-70
2024/02/12 00:26:41;;;;;;;7.72;4.25;;;;;;;5.50;100.00;99090.00;5061464;28;20518;-70
2024/02/12 00:29:08;;;;;;;13.55;4.97;;;;;;;5.53;100.00;99094.13;5071704;28;20103;-70
2024/02/12 00:31:37;;;;;;;10.05;4.55;;;;;;;5.51;100.00;99094.38;5020104;28;20397;-70
2024/02/12 00:34:03;;;;;;;10.90;4.85;;;;;;;5.53;100.00;99094.94;5038544;28;20033;-70
2024/02/12 00:36:28;;;;;;;18.13;5.32;;;;;;;5.52;100.00;99086.97;5038489;28;20020;-70
2024/02/12 00:38:54;;;;;;;9.38;4.90;;;;;;;5.49;100.00;99088.38;5038022;28;20457;-70
2024/02/12 00:41:23;;;;;;;9.60;4.97;;;;;;;5.45;100.00;99089.25;5055062;28;20029;-71
2024/02/12 00:43:51;;;;;;;11.43;5.22;;;;;;;5.46;100.00;99094.47;5022968;28;20108;-71
2024/02/12 00:46:17;;;;;;;11.18;4.90;;;;;;;5.44;100.00;99096.72;5046918;28;20558;-70
2024/02/12 00:48:42;;;;;;;10.75;4.63;;;;;;;5.44;100.00;99107.72;5069301;28;20048;-70
2024/02/12 00:51:12;;;;;;;15.15;4.65;;;;;;;5.46;100.00;99100.00;5069155;28;20028;-70
2024/02/12 00:53:41;;;;;;;12.15;4.95;;;;;;;5.46;100.00;99102.75;5069301;28;20078;-71
2024/02/12 00:56:07;;;;;;;10.43;4.50;;;;;;;5.47;100.00;99100.81;5070255;28;20024;-71
2024/02/12 00:58:33;;;;;;;13.57;4.57;;;;;;;5.45;100.00;99095.56;5054143;28;20032;-70
2024/02/12 01:00:59;;;;;;;13.85;5.28;;;;;;;5.47;100.00;99095.31;5053536;28;20020;-70
2024/02/12 01:03:25;;;;;;;15.90;5.10;;;;;;;5.47;100.00;99101.63;5064652;28;20024;-70
2024/02/12 01:05:51;;;;;;;12.70;4.45;;;;;;;5.48;100.00;99094.19;5029317;28;20025;-70
2024/02/12 01:08:16;;;;;;;10.90;4.75;;;;;;;5.46;100.00;99093.63;5061788;28;20067;-70
2024/02/12 01:10:42;;;;;;;11.15;4.45;;;;;;;5.41;100.00;99086.28;5049190;28;20062;-70
2024/02/12 01:13:07;;;;;;;9.88;4.50;;;;;;;5.46;100.00;99090.88;5064095;28;20036;-70
2024/02/12 01:15:34;;;;;;;10.40;4.38;;;;;;;5.45;100.00;99089.25;5087279;28;20020;-70
2024/02/12 01:17:59;;;;;;;11.68;4.35;;;;;;;5.43;100.00;99095.03;5037062;28;20028;-70
2024/02/12 01:20:25;;;;;;;14.23;4.13;;;;;;;5.43;100.00;99089.53;5070278;28;20035;-70
2024/02/12 01:22:50;;;;;;;10.90;4.47;;;;;;;5.43;100.00;99091.47;5086680;28;20047;-70
2024/02/12 01:25:18;;;;;;;9.23;4.28;;;;;;;5.44;100.00;99087.63;5052027;28;20164;-71
2024/02/12 01:27:45;;;;;;;15.70;4.50;;;;;;;5.46;100.00;99086.22;5077713;28;20028;-70
2024/02/12 01:30:11;;;;;;;13.50;4.20;;;;;;;5.46;100.00;99090.88;5046996;28;20028;-70
2024/02/12 01:32:36;;;;;;;10.85;4.32;;;;;;;5.44;100.00;99091.19;5055660;28;20044;-70
2024/02/12 01:35:02;;;;;;;9.90;4.07;;;;;;;5.46;100.00;99086.22;5061365;28;20028;-70
2024/02/12 01:37:27;;;;;;;9.23;4.43;;;;;;;5.47;100.00;99090.59;5069258;28;20055;-70
2024/02/12 01:39:53;;;;;;;16.15;5.15;;;;;;;5.46;100.00;99093.63;5071825;28;20050;-70
2024/02/12 01:42:19;;;;;;;12.13;4.30;;;;;;;5.46;100.00;99090.88;5053142;28;20111;-70
2024/02/12 01:45:08;;;;;;;11.88;3.88;;;;;;;5.43;100.00;99085.97;5073528;28;20028;-70
2024/02/12 01:47:34;;;;;;;12.13;4.25;;;;;;;5.45;100.00;99092.00;5046251;28;20055;-70
2024/02/12 01:50:00;;;;;;;9.27;4.13;;;;;;;5.47;100.00;99101.63;5051575;28;20029;-70
2024/02/12 01:52:27;;;;;;;9.98;4.05;;;;;;;5.40;100.00;99090.13;5047279;28;20032;-70
2024/02/12 01:54:53;;;;;;;10.35;4.40;;;;;;;5.36;100.00;99083.59;5021244;28;20041;-71
2024/02/12 01:57:19;;;;;;;10.57;3.75;;;;;;;5.40;100.00;99086.56;5004359;28;20021;-70
2024/02/12 01:59:44;;;;;;;11.35;4.22;;;;;;;5.39;100.00;99088.50;5037064;28;20031;-70
2024/02/12 02:02:14;;;;;;;9.95;3.80;;;;;;;5.40;100.00;99089.31;5020401;28;20028;-70
2024/02/12 02:04:41;;;;;;;9.45;3.70;;;;;;;5.40;100.00;99092.88;5037643;28;20029;-70
2024/02/12 02:07:16;;;;;;;10.57;3.88;;;;;;;5.36;100.00;99094.59;5036501;28;20025;-70
2024/02/12 02:09:42;;;;;;;9.60;4.07;;;;;;;5.42;100.00;99093.41;5037250;28;20036;-70
2024/02/12 02:12:08;;;;;;;12.48;4.25;;;;;;;5.45;100.00;99098.34;5020577;28;20020;-70
2024/02/12 02:14:34;;;;;;;15.30;4.18;;;;;;;5.41;100.00;99102.81;5014583;28;20472;-70
2024/02/12 02:16:59;;;;;;;11.52;3.83;;;;;;;5.42;100.00;99087.09;5033885;28;20091;-70
2024/02/12 02:19:26;;;;;;;10.43;3.78;;;;;;;5.41;100.00;99097.28;5012724;28;20394;-71
2024/02/12 02:21:52;;;;;;;8.77;3.60;;;;;;;5.38;100.00;99086.88;5062690;28;20055;-70
2024/02/12 02:24:18;;;;;;;9.88;3.92;;;;;;;5.39;100.00;99088.50;5053235;28;20424;-70
2024/02/12 02:26:44;;;;;;;10.10;3.95;;;;;;;5.36;100.00;99091.84;5020517;28;20033;-70
2024/02/12 02:29:12;;;;;;;12.48;3.50;;;;;;;5.38;100.00;99082.19;5034371;28;20026;-70
2024/02/12 02:31:38;;;;;;;13.35;3.83;;;;;;;5.34;100.00;99080.31;5020629;28;20029;-70
2024/02/12 02:34:03;;;;;;;13.98;3.78;;;;;;;5.36;100.00;99080.84;5036569;28;20112;-70
2024/02/12 02:36:29;;;;;;;13.15;3.92;;;;;;;5.34;100.00;99083.88;5020120;28;20052;-70
2024/02/12 02:38:55;;;;;;;10.35;3.50;;;;;;;5.33;100.00;99073.97;5017498;28;20040;-71
2024/02/12 02:41:21;;;;;;;11.43;3.70;;;;;;;5.34;100.00;99072.03;5030151;28;20029;-71
2024/02/12 02:43:48;;;;;;;10.82;3.92;;;;;;;5.38;100.00;99076.69;5036220;28;20576;-70
2024/02/12 02:46:27;;;;;;;8.68;3.38;;;;;;;5.35;100.00;99070.94;5034798;28;20033;-70
2024/02/12 02:48:53;;;;;;;9.52;3.95;;;;;;;5.39;100.00;99077.50;5041052;28;20559;-70
2024/02/12 02:51:26;;;;;;;10.27;3.65;;;;;;;5.36;100.00;99064.31;5057033;28;20084;-70
2024/02/12 02:53:52;;;;;;;11.30;3.47;;;;;;;5.37;100.00;99060.44;5008055;28;20024;-71
2024/02/12 02:56:17;;;;;;;14.15;4.43;;;;;;;5.35;100.00;99066.25;5022872;28;20029;-70
2024/02/12 02:58:42;;;;;;;10.38;3.42;;;;;;;5.33;100.00;99065.72;5052571;28;20052;-70
2024/02/12 03:01:10;;;;;;;12.43;3.45;;;;;;;5.37;100.00;99065.94;5059344;28;20035;-70
2024/02/12 03:03:35;;;;;;;8.20;3.22;;;;;;;5.38;100.00;99062.09;5059470;28;20028;-70
2024/02/12 03:06:03;;;;;;;8.80;3.38;;;;;;;5.38;100.00;99067.59;5022145;28;20036;-70
2024/02/12 03:08:34;;;;;;;11.75;3.17;;;;;;;5.38;100.00;99065.66;5040516;28;20032;-70
2024/02/12 03:11:01;;;;;;;12.55;3.70;;;;;;;5.33;100.00;99062.16;5056920;28;20032;-70
2024/02/12 03:13:27;;;;;;;6.28;2.83;;;;;;;5.34;100.00;99069.28;5024030;28;20067;-70
2024/02/12 03:15:53;;;;;;;8.95;3.28;;;;;;;5.33;100.00;99068.47;5023659;28;20055;-71
2024/02/12 03:18:20;;;;;;;7.25;3.40;;;;;;;5.34;100.00;99074.78;5056716;28;20504;-70
2024/02/12 03:20:51;;;;;;;8.93;3.38;;;;;;;5.36;100.00;99072.56;5030660;28;20036;-70
2024/02/12 03:23:17;;;;;;;10.13;3.38;;;;;;;5.38;100.00;99071.16;5023855;28;20044;-70
2024/02/12 03:25:42;;;;;;;10.25;3.30;;;;;;;5.36;100.00;99078.09;5024483;28;20029;-70
2024/02/12 03:28:08;;;;;;;13.50;3.33;;;;;;;5.39;100.00;99077.50;5056243;28;20529;-70
2024/02/12 03:30:33;;;;;;;12.05;3.67;;;;;;;5.41;100.00;99075.28;5023059;28;20021;-71
2024/02/12 03:33:02;;;;;;;10.68;3.25;;;;;;;5.38;100.00;99075.88;5023082;28;20027;-70
2024/02/12 03:35:28;;;;;;;10.15;3.28;;;;;;;5.36;100.00;99072.56;5007755;28;20025;-70
2024/02/12 03:37:54;;;;;;;10.18;3.50;;;;;;;5.37;100.00;99075.00;5037511;28;20064;-70
2024/02/12 03:40:22;;;;;;;11.15;4.13;;;;;;;5.35;100.00;99084.72;5039669;28;20036;-70
2024/02/12 03:42:49;;;;;;;12.32;3.60;;;;;;;5.38;100.00;99082.19;5056146;28;20501;-70
2024/02/12 03:45:15;;;;;;;9.38;3.15;;;;;;;5.38;100.00;99078.63;5032271;28;20044;-70
2024/02/12 03:47:41;;;;;;;11.07;3.47;;;;;;;5.35;100.00;99081.97;5069598;28;20045;-70
2024/02/12 04:01:06;;;;;;;7.93;3.42;;;;;;;5.39;100.00;99083.00;5070623;28;20528;-70
2024/02/12 04:03:32;;;;;;;11.52;3.30;;;;;;;5.38;100.00;99092.38;5053891;28;20527;-70
2024/02/12 04:05:57;;;;;;;8.52;3.08;;;;;;;5.38;100.00;99098.69;5071894;28;20036;-70
2024/02/12 04:08:23;;;;;;;11.23;3.40;;;;;;;5.37;100.00;99097.03;5059162;28;20036;-70
2024/02/12 04:10:48;;;;;;;6.20;3.10;;;;;;;5.41;100.00;99094.53;5088996;28;20024;-70
2024/02/12 04:13:14;;;;;;;7.75;2.88;;;;;;;5.42;100.00;99093.41;5069747;28;20032;-70
2024/02/12 04:15:41;;;;;;;9.93;3.13;;;;;;;5.47;100.00;99089.78;5088862;28;20039;-70
2024/02/12 04:18:08;;;;;;;7.15;2.97;;;;;;;5.46;100.00;99093.63;5083036;28;20032;-70
2024/02/12 04:20:35;;;;;;;10.52;3.10;;;;;;;5.46;100.00;99088.97;5054465;28;20028;-70
2024/02/12 04:23:01;;;;;;;11.23;3.13;;;;;;;5.41;100.00;99085.47;5052383;28;20081;-70
2024/02/12 04:25:27;;;;;;;9.18;2.80;;;;;;;5.44;100.00;99091.19;5065922;28;20025;-70
2024/02/12 04:27:54;;;;;;;6.20;2.80;;;;;;;5.45;100.00;99094.75;5066678;28;20067;-70
2024/02/12 04:30:20;;;;;;;9.25;2.88;;;;;;;5.44;100.00;99095.88;5090003;28;20652;-70
2024/02/12 04:32:47;;;;;;;8.25;3.20;;;;;;;5.46;100.00;99096.38;5082914;28;20024;-70
2024/02/12 04:35:13;;;;;;;7.68;2.95;;;;;;;5.47;100.00;99104.38;5047078;28;20374;-70
2024/02/12 04:37:39;;;;;;;10.18;3.08;;;;;;;5.48;100.00;99114.25;5057873;28;20036;-70
2024/02/12 04:40:07;;;;;;;9.50;2.83;;;;;;;5.49;100.00;99117.84;5090335;28;20046;-71
2024/02/12 04:42:33;;;;;;;10.98;2.67;;;;;;;5.52;100.00;99109.81;5085034;28;20051;-70
2024/02/12 04:44:58;;;;;;;9.68;3.03;;;;;;;5.50;100.00;99125.81;5072393;28;20052;-70
2024/02/12 04:47:24;;;;;;;6.80;2.80;;;;;;;5.52;100.00;99114.50;5080111;28;20661;-70
2024/02/12 04:49:49;;;;;;;9.23;3.20;;;;;;;5.54;100.00;99123.28;5058234;28;20035;-70
2024/02/12 04:52:16;;;;;;;9.05;2.80;;;;;;;5.53;100.00;99130.72;5070580;28;20033;-70
2024/02/12 04:54:43;;;;;;;6.93;2.92;;;;;;;5.54;100.00;99126.88;5056741;28;20024;-71
2024/02/12 04:57:08;;;;;;;9.77;2.67;;;;;;;5.54;100.00;99129.63;5041904;28;20437;-70
2024/02/12 04:59:35;;;;;;;9.45;2.90;;;;;;;5.55;100.00;99125.75;5046905;28;20033;-70
2024/02/12 05:02:00;;;;;;;7.38;2.55;;;;;;;5.57;100.00;99129.03;5024996;28;20042;-71
2024/02/12 05:04:29;;;;;;;9.98;3.55;;;;;;;5.59;100.00;99131.47;5057485;28;20032;-71
2024/02/12 05:06:54;;;;;;;9.68;2.60;;;;;;;5.58;100.00;99135.38;5041442;28;20033;-70
2024/02/12 05:09:20;;;;;;;6.40;2.95;;;;;;;5.58;100.00;99138.94;5074565;28;20078;-70
2024/02/12 05:11:45;;;;;;;8.80;3.00;;;;;;;5.57;100.00;99141.97;5074619;28;20024;-70
2024/02/12 05:14:10;;;;;;;10.20;3.05;;;;;;;5.56;100.00;99138.41;5074740;28;20055;-70
2024/02/12 05:16:37;;;;;;;6.43;2.65;;;;;;;5.56;100.00;99140.34;5041181;28;20023;-70
2024/02/12 05:24:31;;;;;;;9.93;2.78;;;;;;;5.59;100.00;99140.56;5074702;28;20070;-70
2024/02/12 05:27:00;;;;;;;10.02;2.70;;;;;;;5.56;100.00;99143.91;5057356;28;20037;-70
2024/02/12 05:29:25;;;;;;;9.13;2.75;;;;;;;5.55;100.00;99150.53;5051912;28;20037;-70
2024/02/12 05:31:51;;;;;;;7.30;2.90;;;;;;;5.57;100.00;99151.06;5040164;28;20037;-70
2024/02/12 05:34:20;;;;;;;11.05;3.33;;;;;;;5.56;100.00;99151.34;5057411;28;20071;-70
2024/02/12 05:36:53;;;;;;;10.10;2.55;;;;;;;5.58;100.00;99151.88;5041168;28;20024;-70
2024/02/12 05:39:19;;;;;;;10.80;3.00;;;;;;;5.57;100.00;99151.06;5044554;28;20450;-70
2024/02/12 05:41:45;;;;;;;9.63;2.80;;;;;;;5.60;100.00;99150.47;5040850;28;20103;-70
2024/02/12 05:44:11;;;;;;;10.68;2.88;;;;;;;5.58;100.00;99152.69;5057076;28;20032;-70
2024/02/12 05:46:36;;;;;;;11.23;3.05;;;;;;;5.62;100.00;99154.88;5033296;28;20039;-71
2024/02/12 05:49:03;;;;;;;10.00;3.28;;;;;;;5.57;100.00;99153.81;5063315;28;20171;-70
2024/02/12 05:51:29;;;;;;;9.10;2.90;;;;;;;5.61;100.00;99156.81;5045771;28;20031;-70
2024/02/12 05:53:54;;;;;;;6.55;2.70;;;;;;;5.59;100.00;99159.03;5068215;28;20028;-71
2024/02/12 05:56:21;;;;;;;9.00;2.85;;;;;;;5.61;100.00;99156.81;5077081;28;20032;-71
2024/02/12 05:58:46;;;;;;;9.57;3.17;;;;;;;5.61;100.00;99162.31;5068759;28;20028;-71
2024/02/12 06:01:12;;;;;;;11.63;2.97;;;;;;;5.62;100.00;99160.38;5062090;28;20084;-70
2024/02/12 06:03:37;;;;;;;8.80;2.80;;;;;;;5.65;100.00;99168.03;5063253;28;20043;-70
2024/02/12 06:06:03;;;;;;;8.68;2.53;;;;;;;5.63;100.00;99165.59;5084801;28;20031;-70
2024/02/12 06:08:29;;;;;;;9.38;2.80;;;;;;;5.65;100.00;99160.59;5067835;28;20032;-70
2024/02/12 06:10:54;;;;;;;10.35;3.20;;;;;;;5.64;100.00;99166.41;5077010;28;20485;-70
2024/02/12 06:13:20;;;;;;;11.80;2.88;;;;;;;5.64;100.00;99166.41;5056604;28;20035;-70
2024/02/12 06:15:46;;;;;;;6.75;2.70;;;;;;;5.63;100.00;99173.03;5083124;28;20111;-71
2024/02/12 06:18:11;;;;;;;10.25;3.00;;;;;;;5.63;100.00;99164.75;5076664;28;20035;-70
2024/02/12 06:20:37;;;;;;;10.98;2.90;;;;;;;5.63;100.00;99170.25;5059586;28;20051;-70
2024/02/12 06:23:02;;;;;;;10.45;2.63;;;;;;;5.60;100.00;99172.50;5058593;28;20028;-71
2024/02/12 06:25:28;;;;;;;11.15;2.88;;;;;;;5.60;100.00;99172.50;5040290;28;20036;-70
2024/02/12 06:27:53;;;;;;;7.80;2.17;;;;;;;5.59;100.00;99176.38;5082417;28;20477;-70
2024/02/12 06:30:19;;;;;;;6.65;2.72;;;;;;;5.62;100.00;99177.72;5069194;28;20481;-71
2024/02/12 06:32:44;;;;;;;8.77;3.08;;;;;;;5.62;100.00;99179.66;5062445;28;20024;-70
2024/02/12 06:35:10;;;;;;;7.93;2.67;;;;;;;5.60;100.00;99189.03;5052412;28;20119;-71
2024/02/12 06:37:35;;;;;;;8.75;2.80;;;;;;;5.60;100.00;99199.25;5045144;28;20039;-70
2024/02/12 06:40:02;;;;;;;9.15;3.03;;;;;;;5.62;100.00;99199.75;5068823;28;20036;-70
2024/02/12 06:42:30;;;;;;;12.85;3.85;;;;;;;5.60;100.00;99197.31;5078643;28;20035;-70
2024/02/12 06:44:56;;;;;;;12.50;3.30;;;;;;;5.62;100.00;99204.44;5052325;28;20038;-71
2024/02/12 06:47:21;;;;;;;9.25;3.10;;;;;;;5.62;100.00;99204.44;5076313;28;20044;-71
2024/02/12 06:49:47;;;;;;;8.93;3.63;;;;;;;5.63;100.00;99209.66;5067952;28;20032;-71
2024/02/12 06:52:13;;;;;;;12.13;2.80;;;;;;;5.57;100.00;99206.16;5049615;28;20028;-71
2024/02/12 06:54:38;;;;;;;10.18;3.45;;;;;;;5.55;100.00;99210.31;5048000;28;20029;-70
2024/02/12 06:57:05;;;;;;;10.85;2.95;;;;;;;5.55;100.00;99216.63;5034897;28;20058;-71
2024/02/12 06:59:31;;;;;;;7.45;2.78;;;;;;;5.55;100.00;99224.91;5061808;28;20033;-71
2024/02/12 07:01:59;;;;;;;7.10;2.45;;;;;;;5.56;100.00;99226.53;5079567;28;20036;-71
2024/02/12 07:04:24;;;;;;;8.43;3.38;;;;;;;5.53;100.00;99234.56;5056586;28;20115;-71
2024/02/12 07:06:50;;;;;;;15.23;3.30;;;;;;;5.52;100.00;99238.44;5055847;28;20035;-71
2024/02/12 07:09:15;;;;;;;9.45;2.75;;;;;;;5.50;100.00;99243.41;5064742;28;20493;-71
2024/02/12 07:11:41;;;;;;;8.57;2.63;;;;;;;5.51;100.00;99256.88;5053427;28;20078;-70
2024/02/12 07:14:06;;;;;;;9.27;3.22;;;;;;;5.46;100.00;99258.84;5067330;28;20039;-71
2024/02/12 07:16:32;;;;;;;10.32;3.25;;;;;;;5.44;100.00;99272.94;5076039;28;20377;-71
2024/02/12 07:18:57;;;;;;;11.32;3.67;;;;;;;5.42;100.00;99272.38;5076114;28;20043;-71
2024/02/12 07:21:23;;;;;;;8.02;3.15;;;;;;;5.43;100.00;99282.28;5066098;28;20063;-71
2024/02/12 07:23:49;;;;;;;8.30;3.05;;;;;;;5.40;100.00;99298.56;5076040;28;20025;-70
2024/02/12 07:26:15;;;;;;;10.77;3.67;;;;;;;5.38;100.00;99294.19;5051608;28;20558;-71
2024/02/12 07:28:40;;;;;;;10.30;3.25;;;;;;;5.38;100.00;99294.19;5063393;28;20032;-71
2024/02/12 07:31:07;;;;;;;10.75;3.42;;;;;;;5.38;100.00;99299.69;5073640;28;20051;-71
2024/02/12 07:33:35;;;;;;;8.63;3.53;;;;;;;5.38;100.00;99315.41;5066372;28;20028;-71
2024/02/12 07:36:03;;;;;;;11.82;3.72;;;;;;;5.37;100.00;99308.22;5073318;28;20024;-70
2024/02/12 07:38:28;;;;;;;8.90;3.40;;;;;;;5.36;100.00;99314.84;5041651;28;20400;-71
2024/02/12 07:40:56;;;;;;;10.55;4.00;;;;;;;5.32;100.00;99314.63;5070281;28;20024;-70
2024/02/12 07:43:22;;;;;;;14.05;4.32;;;;;;;5.33;100.00;99323.69;5056570;28;20032;-70
2024/02/12 07:45:47;;;;;;;8.82;3.35;;;;;;;5.32;100.00;99327.53;5048219;28;20036;-70
2024/02/12 07:48:15;;;;;;;10.32;3.42;;;;;;;5.33;100.00;99331.94;5061189;28;20090;-70
2024/02/12 07:50:40;;;;;;;10.20;3.78;;;;;;;5.31;100.00;99329.47;5078931;28;20020;-71
2024/02/12 07:53:06;;;;;;;13.30;4.25;;;;;;;5.35;100.00;99340.75;5064215;28;20032;-70
2024/02/12 07:55:32;;;;;;;10.73;4.28;;;;;;;5.34;100.00;99345.41;5094774;28;20063;-70
2024/02/12 07:57:58;;;;;;;10.02;3.60;;;;;;;5.33;100.00;99354.78;5036933;28;20032;-71
2024/02/12 08:00:23;;;;;;;9.07;3.55;;;;;;;5.34;100.00;99363.88;5081792;28;20472;-70
2024/02/12 08:02:49;;;;;;;7.70;4.10;;;;;;;5.36;100.00;99359.72;5047742;28;20160;-70
2024/02/12 08:05:15;;;;;;;9.40;4.00;;;;;;;5.35;100.00;99369.09;5081768;28;20077;-71
2024/02/12 08:07:46;;;;;;;11.18;3.85;;;;;;;5.38;100.00;99373.22;5048406;28;20069;-70
2024/02/12 08:10:12;;;;;;;13.52;4.60;;;;;;;5.39;100.00;99374.84;5048404;28;20024;-70
2024/02/12 08:12:37;;;;;;;9.68;3.83;;;;;;;5.42;100.00;99385.28;5067365;28;20032;-71
2024/02/12 08:15:03;;;;;;;9.43;3.63;;;;;;;5.44;100.00;99383.06;5070449;28;20122;-71
2024/02/12 08:17:30;;;;;;;9.18;3.72;;;;;;;5.51;100.00;99393.75;5065353;28;20067;-70
2024/02/12 08:19:55;;;;;;;9.02;3.42;;;;;;;5.52;100.00;99395.41;5062772;28;20036;-71
2024/02/12 08:22:22;;;;;;;9.38;3.80;;;;;;;5.56;100.00;99396.47;5069839;28;20043;-71
2024/02/12 08:24:48;;;;;;;7.00;3.40;;;;;;;5.62;100.00;99400.00;5077310;28;20049;-70
2024/02/12 08:27:13;;;;;;;9.07;3.88;;;;;;;5.67;100.00;99403.53;5066662;28;20031;-70
2024/02/12 08:29:39;;;;;;;9.95;3.88;;;;;;;5.72;100.00;99408.19;5073656;28;20374;-71
2024/02/12 08:32:05;;;;;;;11.77;3.40;;;;;;;5.76;100.00;99415.56;5029747;28;20032;-70
2024/02/12 08:34:31;;;;;;;7.50;3.53;;;;;;;5.82;100.00;99421.84;5079632;28;20031;-70
2024/02/12 08:36:57;;;;;;;6.60;3.45;;;;;;;5.87;100.00;99419.06;5066047;28;20396;-70
2024/02/12 08:39:22;;;;;;;13.80;4.07;;;;;;;5.94;100.00;99430.59;5068739;28;20028;-71
2024/02/12 08:41:48;;;;;;;7.97;3.60;;;;;;;6.00;100.00;99432.19;5082473;28;20496;-70
2024/02/12 08:44:14;;;;;;;9.23;4.40;;;;;;;6.06;100.00;99435.72;5049621;28;20056;-70
2024/02/12 08:46:39;;;;;;;10.77;3.90;;;;;;;6.15;100.00;99446.94;5043934;28;20036;-71
2024/02/12 08:49:05;;;;;;;12.90;5.20;;;;;;;6.23;100.00;99443.56;5067238;28;20028;-71
2024/02/12 08:51:31;;;;;;;15.13;4.57;;;;;;;6.31;100.00;99455.91;5041348;28;20055;-71
2024/02/12 08:53:57;;;;;;;12.15;4.55;;;;;;;6.36;100.00;99456.66;5068340;28;20507;-71
2024/02/12 08:56:22;;;;;;;12.57;4.15;;;;;;;6.42;100.00;99463.75;5030672;28;20016;-71
2024/02/12 08:58:48;;;;;;;18.88;4.50;;;;;;;6.50;100.00;99467.81;5046674;28;20401;-71
2024/02/12 09:01:17;;;;;;;12.00;4.53;;;;;;;6.55;100.00;99467.78;5066147;28;20382;-71
2024/02/12 09:03:43;;;;;;;10.50;4.75;;;;;;;6.62;100.00;99473.75;5054088;28;20107;-71
2024/02/12 09:06:12;;;;;;;13.43;4.72;;;;;;;6.68;100.00;99478.09;5069359;28;20036;-71
2024/02/12 09:08:44;;;;;;;11.57;4.57;;;;;;;6.75;100.00;99483.28;5052401;28;20113;-71
2024/02/12 09:11:10;;;;;;;9.95;4.78;;;;;;;6.79;100.00;99487.06;5070506;28;20032;-70
2024/02/12 09:13:39;;;;;;;11.82;4.90;;;;;;;6.85;100.00;99488.69;5069192;28;20549;-70
2024/02/12 09:16:05;;;;;;;17.00;6.68;;;;;;;6.91;100.00;99509.59;5067481;28;20026;-70
2024/02/12 09:18:34;;;;;;;13.40;5.45;;;;;;;6.97;100.00;99512.28;5060333;28;20037;-70
2024/02/12 09:21:00;;;;;;;18.23;6.53;;;;;;;7.03;100.00;99508.34;5070097;28;20036;-71
2024/02/12 09:23:26;;;;;;;18.30;6.97;;;;;;;7.10;100.00;99519.81;5076173;28;20063;-71
2024/02/12 09:25:51;;;;;;;17.77;7.35;;;;;;;7.15;100.00;99522.53;5061034;28;20024;-71
2024/02/12 09:28:17;;;;;;;17.98;7.13;;;;;;;7.21;100.00;99521.34;5061928;28;20036;-71
2024/02/12 09:30:44;;;;;;;22.25;6.72;;;;;;;7.29;100.00;99517.94;5055186;28;20401;-70
2024/02/12 09:33:11;;;;;;;20.90;7.22;;;;;;;7.36;100.00;99525.88;5061926;28;20039;-71
2024/02/12 09:35:37;;;;;;;19.15;7.50;;;;;;;7.44;100.00;99532.66;5055228;28;20184;-71
2024/02/12 09:38:03;;;;;;;21.20;7.30;;;;;;;7.47;100.00;99532.06;5076366;28;20032;-71
2024/02/12 09:40:32;;;;;;;17.17;6.57;;;;;;;7.54;100.00;99535.28;5043648;28;20051;-71
2024/02/12 09:42:58;;;;;;;18.83;7.40;;;;;;;7.56;100.00;99547.69;5046480;28;20059;-71
2024/02/12 09:45:25;;;;;;;18.38;6.53;;;;;;;7.61;100.00;99549.56;5058429;28;20029;-70
2024/02/12 09:47:50;;;;;;;19.13;5.90;;;;;;;7.65;100.00;99556.13;5047201;28;20052;-71
2024/02/12 09:50:16;;;;;;;13.73;6.30;;;;;;;7.69;100.00;99561.88;5038250;28;20028;-71
2024/02/12 09:52:43;;;;;;;14.80;5.68;;;;;;;7.73;100.00;99569.28;5037017;28;20032;-70
2024/02/12 09:55:09;;;;;;;19.50;5.90;;;;;;;7.75;100.00;99572.56;5054625;28;20423;-70
2024/02/12 09:57:34;;;;;;;15.18;5.22;;;;;;;7.78;100.00;99569.19;5028842;28;20035;-71
2024/02/12 10:00:00;;;;;;;16.65;5.70;;;;;;;7.83;100.00;99584.91;5025857;28;20420;-71
2024/02/12 10:02:26;;;;;;;13.88;5.82;;;;;;;7.85;100.00;99571.59;5028265;28;20036;-71
2024/02/12 10:04:51;;;;;;;16.98;6.53;;;;;;;7.90;100.00;99582.56;5050715;28;20040;-71
2024/02/12 10:07:17;;;;;;;13.70;5.30;;;;;;;7.96;100.00;99588.84;5029756;28;20086;-70
2024/02/12 10:09:42;;;;;;;16.38;5.72;;;;;;;8.03;100.00;99594.84;5044886;28;20028;-71
2024/02/12 10:12:08;;;;;;;16.42;5.18;;;;;;;8.08;100.00;99600.28;5053419;28;20044;-71
2024/02/12 10:14:34;;;;;;;14.23;4.75;;;;;;;8.10;100.00;99599.97;5053376;28;20077;-71
2024/02/12 10:17:00;;;;;;;13.27;4.70;;;;;;;8.14;100.00;99595.50;5036542;28;20025;-71
2024/02/12 10:19:27;;;;;;;13.88;4.38;;;;;;;8.22;100.00;99601.19;5036848;28;20036;-71
2024/02/12 10:21:54;;;;;;;14.48;4.75;;;;;;;8.29;100.00;99600.78;5061119;28;20029;-71
2024/02/12 10:24:20;;;;;;;13.23;4.13;;;;;;;8.37;100.00;99602.06;5020846;28;20090;-71
2024/02/12 10:26:49;;;;;;;14.90;4.03;;;;;;;8.48;100.00;99609.09;5035267;28;20029;-71
2024/02/12 10:29:15;;;;;;;11.80;4.07;;;;;;;8.58;100.00;99610.84;5048868;28;20456;-71
2024/02/12 10:31:41;;;;;;;14.32;4.07;;;;;;;8.62;100.00;99615.50;5020605;28;20060;-71
2024/02/12 10:34:08;;;;;;;19.77;3.88;;;;;;;8.78;100.00;99618.81;5003683;28;20021;-71
2024/02/12 10:36:34;;;;;;;14.95;4.18;;;;;;;8.89;100.00;99628.59;5032372;28;20653;-71
2024/02/12 10:39:00;;;;;;;13.05;4.03;;;;;;;8.95;100.00;99632.09;5036678;28;20040;-71
2024/02/12 10:41:30;;;;;;;15.57;4.15;;;;;;;8.99;100.00;99635.88;5036708;28;20061;-71
2024/02/12 10:43:57;;;;;;;10.75;3.75;;;;;;;9.14;100.00;99641.16;5004134;28;20115;-71
2024/02/12 10:46:24;;;;;;;28.15;9.82;;;;;;;9.27;100.00;99635.91;5027028;28;20071;-71
2024/02/12 10:48:49;;;;;;;15.70;5.88;;;;;;;9.33;100.00;99638.31;5025690;28;20077;-71
2024/02/12 10:51:15;;;;;;;25.98;8.10;;;;;;;9.47;100.00;99648.56;5054487;28;20500;-71
2024/02/12 10:53:41;;;;;;;15.90;5.43;;;;;;;9.52;100.00;99645.69;5036158;28;20024;-71
2024/02/12 10:56:08;;;;;;;25.27;7.00;;;;;;;9.67;100.00;99658.41;5020273;28;20065;-71
2024/02/12 10:58:34;;;;;;;23.85;7.88;;;;;;;9.76;100.00;99664.88;5036382;28;20021;-71
2024/02/12 11:01:00;;;;;;;18.92;6.80;;;;;;;9.87;100.00;99660.78;5049306;28;20032;-71
2024/02/12 11:03:45;;;;;;;18.25;6.20;;;;;;;9.97;100.00;99671.66;5059969;28;20029;-71
2024/02/12 11:06:11;;;;;;;16.98;4.90;;;;;;;10.06;100.00;99678.09;5028529;28;20118;-71
2024/02/12 11:08:37;;;;;;;14.68;4.70;;;;;;;10.02;100.00;99679.03;5037436;28;20032;-71
2024/02/12 11:11:03;;;;;;;11.55;4.00;;;;;;;10.02;100.00;99682.59;5040371;28;20037;-71
2024/02/12 11:13:39;;;;;;;9.13;2.85;;;;;;;10.11;100.00;99685.47;5024046;28;20031;-71
2024/02/12 11:16:06;;;;;;;13.65;2.63;;;;;;;10.16;100.00;99688.13;5015184;28;20114;-71
2024/02/12 11:18:35;;;;;;;12.27;3.78;;;;;;;10.19;100.00;99693.06;5052262;28;20040;-71
2024/02/12 11:21:01;;;;;;;10.75;3.35;;;;;;;10.29;100.00;99703.16;5049132;28;20433;-71
2024/02/12 11:23:28;;;;;;;9.35;3.33;;;;;;;10.35;100.00;99713.00;5037073;28;20065;-71
2024/02/12 11:25:59;;;;;;;10.85;3.55;;;;;;;10.42;100.00;99707.03;5034111;28;20047;-71
2024/02/12 11:28:29;;;;;;;10.07;3.47;;;;;;;10.52;100.00;99707.59;5041076;28;20033;-71
2024/02/12 11:30:54;;;;;;;10.20;2.92;;;;;;;10.64;100.00;99714.56;5037818;28;20037;-71
2024/02/12 11:33:20;;;;;;;9.07;2.78;;;;;;;10.67;100.00;99713.94;5039526;28;20036;-71
2024/02/12 11:35:45;;;;;;;6.95;2.13;;;;;;;10.74;100.00;99717.09;5056430;28;20036;-71
2024/02/12 11:38:13;;;;;;;11.95;2.45;;;;;;;10.81;100.00;99714.72;5056086;28;20029;-71
2024/02/12 11:40:40;;;;;;;6.20;1.92;;;;;;;10.89;100.00;99724.25;5055748;28;20029;-71